createdAt,value
2022-11-24T00:01:21.051Z,99195.84
2022-11-24T00:04:24.059Z,99202.81
2022-11-24T00:07:25.551Z,99207.38
2022-11-24T00:10:26.960Z,99204.63
2022-11-24T00:13:28.396Z,99207.38
2022-11-24T00:16:32.151Z,99207.56
2022-11-24T00:19:33.563Z,99217.81
2022-11-24T00:22:34.970Z,99214.06
2022-11-24T00:25:36.564Z,99219.94
2022-11-24T00:28:38.692Z,99213.72
2022-11-24T00:31:41.882Z,99213.91
2022-11-24T00:34:43.295Z,99229.38
2022-11-24T00:37:44.699Z,99231.38
2022-11-24T00:40:46.099Z,99223.53
2022-11-24T00:43:47.517Z,99228.38
2022-11-24T00:46:49.084Z,99227.94
2022-11-24T00:49:50.607Z,99233.78
2022-11-24T00:52:52.014Z,99244.31
2022-11-24T00:55:53.987Z,99247.88
2022-11-24T00:58:55.476Z,99252.16
2022-11-24T01:01:56.918Z,99260.75
2022-11-24T01:04:58.492Z,99249.84
2022-11-24T01:07:59.925Z,99260.00
2022-11-24T01:11:14.173Z,99260.66
2022-11-24T01:14:15.569Z,99253.78
2022-11-24T01:17:17.137Z,99250.25
2022-11-24T01:20:18.570Z,99259.00
2022-11-24T01:23:20.010Z,99271.78
2022-11-24T01:26:22.219Z,99274.00
2022-11-24T01:29:23.863Z,99277.09
2022-11-24T01:32:25.301Z,99282.78
2022-11-24T01:35:28.086Z,99277.56
2022-11-24T01:38:29.722Z,99271.97
2022-11-24T01:41:31.279Z,99286.31
2022-11-24T01:44:33.619Z,99285.03
2022-11-24T01:47:40.704Z,99291.00
2022-11-24T01:50:43.147Z,99296.38
2022-11-24T01:53:47.597Z,99297.72
2022-11-24T01:56:53.683Z,99293.31
2022-11-24T02:00:02.112Z,99295.31
2022-11-24T02:03:19.243Z,99285.16
2022-11-24T02:06:27.869Z,99282.03
2022-11-24T02:09:55.739Z,99277.88
2022-11-24T02:12:59.518Z,99278.47
2022-11-24T02:16:02.299Z,99283.22
2022-11-24T02:19:12.855Z,99283.59
2022-11-24T02:22:41.017Z,99279.00
2022-11-24T02:26:20.876Z,99277.78
2022-11-24T02:29:22.460Z,99278.91
2022-11-24T02:32:24.101Z,99273.38
2022-11-24T02:35:27.393Z,99273.59
2022-11-24T02:38:31.094Z,99276.50
2022-11-24T02:41:32.521Z,99277.47
2022-11-24T02:44:40.406Z,99285.13
2022-11-24T02:47:41.926Z,99284.06
2022-11-24T02:50:43.441Z,99283.56
2022-11-24T02:53:45.243Z,99283.88
2022-11-24T02:56:46.692Z,99288.41
2022-11-24T02:59:48.086Z,99288.22
2022-11-24T03:02:49.682Z,99278.75
2022-11-24T03:05:51.242Z,99291.28
2022-11-24T03:08:52.632Z,99287.50
2022-11-24T03:11:54.044Z,99297.34
2022-11-24T03:14:55.496Z,99302.38
2022-11-24T03:17:56.994Z,99299.69
2022-11-24T03:21:01.371Z,99303.59
2022-11-24T03:24:02.855Z,99304.28
2022-11-24T03:27:04.677Z,99298.44
2022-11-24T03:30:06.809Z,99285.69
2022-11-24T03:33:08.295Z,99299.06
2022-11-24T03:36:09.988Z,99302.34
2022-11-24T03:39:11.438Z,99304.28
2022-11-24T03:42:12.979Z,99310.84
2022-11-24T03:45:45.542Z,99310.50
2022-11-24T03:48:36.246Z,99306.81
2022-11-24T03:51:37.696Z,99321.34
2022-11-24T03:54:39.156Z,99316.94
2022-11-24T03:57:40.560Z,99322.16
2022-11-24T04:00:42.203Z,99321.50
2022-11-24T04:03:43.841Z,99317.16
2022-11-24T04:06:45.250Z,99323.28
2022-11-24T04:09:46.710Z,99325.31
2022-11-24T04:12:48.126Z,99335.16
2022-11-24T04:15:49.855Z,99345.75
2022-11-24T04:18:54.567Z,99354.16
2022-11-24T04:21:56.056Z,99357.59
2022-11-24T04:24:57.464Z,99347.88
2022-11-24T04:27:58.986Z,99357.94
2022-11-24T04:31:04.570Z,99342.56
2022-11-24T04:34:06.052Z,99347.78
2022-11-24T04:37:07.447Z,99345.56
2022-11-24T04:40:10.846Z,99358.19
2022-11-24T04:43:12.347Z,99363.63
2022-11-24T04:46:13.833Z,99361.50
2022-11-24T04:49:15.322Z,99347.56
2022-11-24T04:52:19.462Z,99361.38
2022-11-24T04:55:21.012Z,99363.91
2022-11-24T04:58:22.422Z,99353.78
2022-11-24T05:01:23.892Z,99358.47
2022-11-24T05:04:25.445Z,99364.53
2022-11-24T05:07:27.501Z,99359.31
2022-11-24T05:10:37.954Z,99359.22
2022-11-24T05:13:39.383Z,99358.34
2022-11-24T05:16:40.854Z,99350.94
2022-11-24T05:19:42.544Z,99359.34
2022-11-24T05:22:44.267Z,99364.06
2022-11-24T05:25:47.779Z,99350.28
2022-11-24T05:28:49.465Z,99353.94
2022-11-24T05:31:50.903Z,99347.81
2022-11-24T05:34:53.872Z,99349.47
2022-11-24T05:37:55.343Z,99341.25
2022-11-24T05:41:05.167Z,99361.47
2022-11-24T05:44:06.745Z,99365.59
2022-11-24T05:47:08.179Z,99367.38
2022-11-24T05:50:12.679Z,99382.16
2022-11-24T05:53:14.212Z,99390.44
2022-11-24T05:56:15.618Z,99404.13
2022-11-24T05:59:17.059Z,99432.53
2022-11-24T06:02:19.156Z,99435.00
2022-11-24T06:05:20.750Z,99447.81
2022-11-24T06:08:25.542Z,99446.78
2022-11-24T06:11:29.556Z,99454.50
2022-11-24T06:14:31.035Z,99456.03
2022-11-24T06:17:32.517Z,99457.53
2022-11-24T06:20:33.961Z,99454.06
2022-11-24T06:23:35.946Z,99451.69
2022-11-24T06:26:37.335Z,99452.16
2022-11-24T06:29:39.181Z,99449.78
2022-11-24T06:32:49.177Z,99458.66
2022-11-24T06:35:51.174Z,99461.41
2022-11-24T06:38:53.085Z,99468.38
2022-11-24T06:41:54.534Z,99477.00
2022-11-24T06:44:55.994Z,99479.22
2022-11-24T06:47:57.749Z,99496.19
2022-11-24T06:51:00.629Z,99502.75
2022-11-24T06:54:02.373Z,99501.28
2022-11-24T06:57:03.856Z,99513.97
2022-11-24T07:00:07.915Z,99513.97
2022-11-24T07:03:16.263Z,99505.72
2022-11-24T07:06:19.028Z,99500.59
2022-11-24T07:09:20.431Z,99497.09
2022-11-24T07:12:21.968Z,99502.50
2022-11-24T07:15:23.348Z,99508.59
2022-11-24T07:18:24.744Z,99508.97
2022-11-24T07:21:28.080Z,99520.03
2022-11-24T07:24:29.503Z,99520.88
2022-11-24T07:27:30.935Z,99532.31
2022-11-24T07:30:32.372Z,99528.78
2022-11-24T07:33:34.230Z,99528.63
2022-11-24T07:36:35.709Z,99529.69
2022-11-24T07:39:37.193Z,99528.34
2022-11-24T07:42:38.606Z,99562.22
2022-11-24T07:45:40.057Z,99565.63
2022-11-24T07:48:41.504Z,99550.75
2022-11-24T07:51:42.896Z,99549.72
2022-11-24T07:54:44.337Z,99551.31
2022-11-24T07:57:45.766Z,99558.31
2022-11-24T08:00:47.606Z,99557.41
2022-11-24T08:03:49.072Z,99564.09
2022-11-24T08:06:50.681Z,99567.78
2022-11-24T08:09:52.332Z,99568.03
2022-11-24T08:12:53.783Z,99577.06
2022-11-24T08:15:55.211Z,99581.75
2022-11-24T08:18:56.760Z,99583.75
2022-11-24T08:21:58.135Z,99572.75
2022-11-24T08:24:59.592Z,99577.28
2022-11-24T08:28:02.752Z,99584.56
2022-11-24T08:31:06.060Z,99588.91
2022-11-24T08:34:07.580Z,99592.44
2022-11-24T08:37:08.971Z,99594.22
2022-11-24T08:40:11.216Z,99589.16
2022-11-24T08:43:12.682Z,99582.59
2022-11-24T08:46:18.887Z,99591.31
2022-11-24T08:49:21.551Z,99589.13
2022-11-24T08:52:23.046Z,99597.38
2022-11-24T08:55:24.489Z,99594.88
2022-11-24T08:58:25.871Z,99609.66
2022-11-24T09:01:28.911Z,99598.59
2022-11-24T09:04:30.471Z,99594.06
2022-11-24T09:07:31.947Z,99596.53
2022-11-24T09:10:33.394Z,99603.38
2022-11-24T09:13:35.729Z,99612.91
2022-11-24T09:16:37.173Z,99623.47
2022-11-24T09:19:38.577Z,99627.13
2022-11-24T09:22:41.617Z,99635.56
2022-11-24T09:25:43.103Z,99636.72
2022-11-24T09:28:45.699Z,99647.09
2022-11-24T09:31:47.081Z,99647.38
2022-11-24T09:34:50.780Z,99652.63
2022-11-24T09:37:52.260Z,99652.41
2022-11-24T09:40:56.554Z,99659.50
2022-11-24T09:44:06.252Z,99660.03
2022-11-24T09:47:41.872Z,99666.06
2022-11-24T09:50:46.021Z,99671.84
2022-11-24T09:53:54.923Z,99674.41
2022-11-24T09:57:00.776Z,99678.88
2022-11-24T10:00:10.870Z,99678.50
2022-11-24T10:03:23.464Z,99680.97
2022-11-24T10:06:44.525Z,99689.72
2022-11-24T10:10:00.824Z,99689.28
2022-11-24T10:13:30.690Z,99681.41
2022-11-24T10:16:51.664Z,99685.00
2022-11-24T10:20:14.975Z,99683.06
2022-11-24T10:23:39.844Z,99686.69
2022-11-24T10:26:51.386Z,99692.94
2022-11-24T10:29:52.961Z,99698.16
2022-11-24T10:33:02.637Z,99692.94
2022-11-24T10:36:12.897Z,99699.75
2022-11-24T10:39:23.709Z,99700.97
2022-11-24T10:42:29.414Z,99696.97
2022-11-24T10:45:32.012Z,99696.34
2022-11-24T10:48:40.367Z,99689.75
2022-11-24T10:51:52.783Z,99687.13
2022-11-24T10:54:55.727Z,99693.59
2022-11-24T10:58:15.593Z,99698.50
2022-11-24T11:01:16.939Z,99693.84
2022-11-24T11:04:21.314Z,99698.28
2022-11-24T11:07:25.558Z,99703.38
2022-11-24T11:10:27.045Z,99703.13
2022-11-24T11:13:30.458Z,99698.47
2022-11-24T11:16:39.240Z,99698.41
2022-11-24T11:19:49.563Z,99695.94
2022-11-24T11:22:51.688Z,99697.25
2022-11-24T11:26:27.715Z,99696.72
2022-11-24T11:36:17.339Z,99700.19
2022-11-24T11:39:24.761Z,99696.88
2022-11-24T11:43:02.242Z,99707.72
2022-11-24T11:46:17.607Z,99698.38
2022-11-24T11:49:19.234Z,99697.78
2022-11-24T11:52:54.695Z,99687.97
2022-11-24T11:56:08.280Z,99687.38
2022-11-24T12:00:03.615Z,99679.34
2022-11-24T12:03:32.576Z,99686.69
2022-11-24T12:06:59.323Z,99691.16
2022-11-24T12:10:19.509Z,99701.75
2022-11-24T12:13:32.964Z,99702.63
2022-11-24T12:16:54.913Z,99710.75
2022-11-24T12:19:58.976Z,99720.78
2022-11-24T12:24:04.168Z,99714.31
2022-11-24T12:27:10.729Z,99722.16
2022-11-24T12:30:17.275Z,99726.44
2022-11-24T12:33:50.501Z,99715.97
2022-11-24T12:37:26.541Z,99717.13
2022-11-24T12:40:35.648Z,99724.19
2022-11-24T12:43:40.167Z,99718.88
2022-11-24T12:47:08.697Z,99719.53
2022-11-24T12:50:16.240Z,99718.13
2022-11-24T12:53:28.432Z,99712.25
2022-11-24T12:56:42.466Z,99705.25
2022-11-24T13:00:16.046Z,99703.13
2022-11-24T13:04:08.186Z,99702.31
2022-11-24T13:07:14.748Z,99699.53
2022-11-24T13:14:28.120Z,99689.50
2022-11-24T13:17:36.336Z,99691.06
2022-11-24T13:20:44.877Z,99689.53
2022-11-24T13:23:59.889Z,99689.97
2022-11-24T13:27:13.462Z,99697.66
2022-11-24T13:30:33.106Z,99697.66
2022-11-24T13:33:35.615Z,99692.00
2022-11-24T13:36:52.522Z,99695.50
2022-11-24T13:40:03.015Z,99698.50
2022-11-24T13:43:04.430Z,99701.78
2022-11-24T13:46:09.607Z,99698.66
2022-11-24T13:49:14.138Z,99688.97
2022-11-24T13:52:34.668Z,99690.13
2022-11-24T13:55:38.966Z,99679.78
2022-11-24T13:58:43.665Z,99682.56
2022-11-24T14:01:46.758Z,99682.22
2022-11-24T14:04:48.802Z,99682.72
2022-11-24T14:07:52.932Z,99682.53
2022-11-24T14:11:00.181Z,99688.78
2022-11-24T14:14:15.959Z,99681.22
2022-11-24T14:17:23.597Z,99688.75
2022-11-24T14:20:27.263Z,99691.09
2022-11-24T14:23:28.817Z,99690.28
2022-11-24T14:26:40.998Z,99690.94
2022-11-24T14:30:15.349Z,99688.09
2022-11-24T14:33:19.718Z,99685.84
2022-11-24T14:36:21.149Z,99684.50
2022-11-24T14:39:25.295Z,99683.81
2022-11-24T14:42:27.559Z,99683.81
2022-11-24T14:45:29.081Z,99688.03
2022-11-24T14:48:33.379Z,99679.91
2022-11-24T14:51:43.166Z,99674.13
2022-11-24T14:54:48.280Z,99671.66
2022-11-24T14:57:49.819Z,99678.16
2022-11-24T15:01:32.503Z,99670.69
2022-11-24T15:08:03.424Z,99661.72
2022-11-24T15:11:06.341Z,99661.53
2022-11-24T15:14:47.582Z,99656.19
2022-11-24T15:17:59.129Z,99663.38
2022-11-24T15:21:00.907Z,99663.09
2022-11-24T15:24:07.130Z,99670.50
2022-11-24T15:27:08.634Z,99663.63
2022-11-24T15:30:12.422Z,99675.75
2022-11-24T15:33:16.561Z,99671.75
2022-11-24T15:36:19.431Z,99672.09
2022-11-24T15:39:20.845Z,99673.31
2022-11-24T15:42:22.220Z,99669.06
2022-11-24T15:45:26.319Z,99656.25
2022-11-24T15:48:28.951Z,99663.28
2022-11-24T15:51:31.559Z,99667.28
2022-11-24T15:54:33.383Z,99666.69
2022-11-24T15:57:35.032Z,99660.97
2022-11-24T16:00:37.701Z,99668.25
2022-11-24T16:03:46.787Z,99674.00
2022-11-24T16:06:49.103Z,99674.59
2022-11-24T16:09:50.529Z,99682.88
2022-11-24T16:12:51.924Z,99681.50
2022-11-24T16:15:53.670Z,99679.84
2022-11-24T16:18:55.272Z,99693.59
2022-11-24T16:21:56.756Z,99696.03
2022-11-24T16:24:58.242Z,99691.66
2022-11-24T16:27:59.720Z,99691.97
2022-11-24T16:31:01.218Z,99691.16
2022-11-24T16:34:02.685Z,99693.38
2022-11-24T16:37:04.121Z,99695.00
2022-11-24T16:40:06.317Z,99691.97
2022-11-24T16:43:07.722Z,99696.06
2022-11-24T16:46:09.144Z,99691.53
2022-11-24T16:49:10.600Z,99687.13
2022-11-24T16:52:12.156Z,99687.16
2022-11-24T16:55:14.209Z,99688.00
2022-11-24T16:58:15.624Z,99690.88
2022-11-24T17:01:17.115Z,99691.69
2022-11-24T17:04:18.574Z,99683.69
2022-11-24T17:07:20.538Z,99688.38
2022-11-24T17:10:22.013Z,99694.28
2022-11-24T17:13:24.376Z,99691.69
2022-11-24T17:16:25.971Z,99689.88
2022-11-24T17:19:27.408Z,99708.81
2022-11-24T17:22:28.811Z,99713.66
2022-11-24T17:25:32.011Z,99721.22
2022-11-24T17:28:34.088Z,99715.31
2022-11-24T17:31:36.111Z,99710.88
2022-11-24T17:34:37.799Z,99703.13
2022-11-24T17:37:39.233Z,99692.13
2022-11-24T17:40:45.667Z,99700.13
2022-11-24T17:43:55.718Z,99707.59
2022-11-24T17:46:58.809Z,99703.91
2022-11-24T17:50:00.288Z,99704.44
2022-11-24T17:53:01.768Z,99701.56
2022-11-24T17:56:04.399Z,99692.19
2022-11-24T17:59:05.905Z,99689.13
2022-11-24T18:02:09.382Z,99688.88
2022-11-24T18:05:10.901Z,99694.91
2022-11-24T18:08:12.324Z,99695.59
2022-11-24T18:11:38.172Z,99694.13
2022-11-24T18:14:39.634Z,99686.69
2022-11-24T18:17:41.025Z,99683.56
2022-11-24T18:20:42.506Z,99684.50
2022-11-24T18:23:44.756Z,99687.81
2022-11-24T18:26:46.224Z,99684.66
2022-11-24T18:29:52.022Z,99688.50
2022-11-24T18:32:58.242Z,99682.28
2022-11-24T18:36:01.463Z,99674.88
2022-11-24T18:39:05.746Z,99681.78
2022-11-24T18:42:07.233Z,99683.56
2022-11-24T18:45:09.076Z,99676.81
2022-11-24T18:48:10.521Z,99676.81
2022-11-24T18:51:15.861Z,99678.34
2022-11-24T18:54:17.430Z,99674.38
2022-11-24T18:57:18.991Z,99679.59
2022-11-24T19:00:20.607Z,99682.34
2022-11-24T19:03:22.224Z,99678.22
2022-11-24T19:06:32.909Z,99677.38
2022-11-24T19:09:34.443Z,99675.78
2022-11-24T19:12:35.918Z,99678.25
2022-11-24T19:15:37.302Z,99672.47
2022-11-24T19:18:38.799Z,99677.94
2022-11-24T19:21:40.911Z,99679.75
2022-11-24T19:24:42.567Z,99674.13
2022-11-24T19:27:44.024Z,99675.88
2022-11-24T19:30:45.438Z,99683.41
2022-11-24T19:33:47.254Z,99686.88
2022-11-24T19:36:48.773Z,99674.53
2022-11-24T19:39:50.995Z,99669.72
2022-11-24T19:42:53.359Z,99670.66
2022-11-24T19:45:55.249Z,99685.63
2022-11-24T19:49:00.305Z,99682.22
2022-11-24T19:52:02.506Z,99686.22
2022-11-24T19:55:07.188Z,99675.63
2022-11-24T19:58:09.040Z,99680.44
2022-11-24T20:01:34.168Z,99677.16
2022-11-24T20:04:39.587Z,99677.53
2022-11-24T20:07:41.108Z,99683.44
2022-11-24T20:10:42.654Z,99684.56
2022-11-24T20:13:45.436Z,99682.91
2022-11-24T20:16:47.572Z,99683.19
2022-11-24T20:19:49.046Z,99681.69
2022-11-24T20:22:50.427Z,99679.06
2022-11-24T20:25:51.878Z,99669.75
2022-11-24T20:28:55.188Z,99668.63
2022-11-24T20:31:56.950Z,99670.28
2022-11-24T20:34:58.497Z,99671.66
2022-11-24T20:37:59.896Z,99665.88
2022-11-24T20:41:09.192Z,99670.84
2022-11-24T20:44:15.327Z,99652.56
2022-11-24T20:47:17.046Z,99665.88
2022-11-24T20:50:18.570Z,99667.78
2022-11-24T20:53:20.114Z,99673.66
2022-11-24T20:56:23.746Z,99673.50
2022-11-24T20:59:25.742Z,99662.16
2022-11-24T21:02:27.322Z,99663.66
2022-11-24T21:05:28.773Z,99667.47
2022-11-24T21:08:38.567Z,99663.53
2022-11-24T21:11:40.086Z,99664.72
2022-11-24T21:14:41.679Z,99665.97
2022-11-24T21:17:43.167Z,99663.13
2022-11-24T21:20:45.111Z,99658.13
2022-11-24T21:23:47.724Z,99662.38
2022-11-24T21:26:51.681Z,99668.22
2022-11-24T21:29:53.439Z,99666.31
2022-11-24T21:32:54.953Z,99660.44
2022-11-24T21:36:02.334Z,99655.81
2022-11-24T21:39:04.092Z,99653.22
2022-11-24T21:42:05.783Z,99659.25
2022-11-24T21:45:10.678Z,99656.56
2022-11-24T21:48:12.212Z,99652.09
2022-11-24T21:51:16.527Z,99652.44
2022-11-24T21:54:17.939Z,99640.91
2022-11-24T21:57:19.323Z,99646.16
2022-11-24T22:00:20.869Z,99649.81
2022-11-24T22:03:22.379Z,99649.78
2022-11-24T22:06:24.054Z,99652.38
2022-11-24T22:09:25.491Z,99646.31
2022-11-24T22:12:28.525Z,99643.56
2022-11-24T22:15:30.010Z,99644.09
2022-11-24T22:18:37.856Z,99647.50
2022-11-24T22:21:39.293Z,99654.97
2022-11-24T22:24:41.203Z,99662.88
2022-11-24T22:27:42.834Z,99670.72
2022-11-24T22:30:44.305Z,99670.22
2022-11-24T22:33:46.535Z,99671.50
2022-11-24T22:36:48.084Z,99665.75
2022-11-24T22:39:49.716Z,99665.06
2022-11-24T22:42:51.164Z,99670.44
2022-11-24T22:45:52.600Z,99680.69
2022-11-24T22:48:54.862Z,99684.72
2022-11-24T22:51:56.287Z,99689.38
2022-11-24T22:54:57.669Z,99687.03
2022-11-24T22:57:59.083Z,99696.84
2022-11-24T23:01:12.179Z,99690.06
2022-11-24T23:04:13.655Z,99702.06
2022-11-24T23:07:15.340Z,99688.69
2022-11-24T23:10:16.918Z,99704.81
2022-11-24T23:13:18.372Z,99701.44
2022-11-24T23:16:20.628Z,99710.19
2022-11-24T23:19:22.048Z,99699.53
2022-11-24T23:22:23.479Z,99696.63
2022-11-24T23:25:24.874Z,99689.06
2022-11-24T23:28:26.340Z,99675.00
2022-11-24T23:31:31.233Z,99682.63
2022-11-24T23:34:32.880Z,99672.81
2022-11-24T23:37:59.989Z,99672.88
2022-11-24T23:40:56.876Z,99675.72
2022-11-24T23:43:58.687Z,99671.59
2022-11-24T23:47:00.069Z,99663.09
2022-11-24T23:50:01.459Z,99666.56
2022-11-24T23:53:02.872Z,99663.50
2022-11-24T23:56:05.071Z,99649.09
2022-11-24T23:59:06.475Z,99659.44
